sensor_id;sensor_type;location;lat;lon;timestamp;P1;durP1;ratioP1;P2;durP2;ratioP2
58302;SDS011;44109;52.398;7.024;2022-12-18T00:01:24;51.10;;;22.92;;
58302;SDS011;44109;52.398;7.024;2022-12-18T00:03:54;50.53;;;24.05;;
58302;SDS011;44109;52.398;7.024;2022-12-18T00:06:23;50.22;;;21.40;;
58302;SDS011;44109;52.398;7.024;2022-12-18T00:08:52;46.28;;;22.20;;
58302;SDS011;44109;52.398;7.024;2022-12-18T00:11:22;54.85;;;24.77;;
58302;SDS011;44109;52.398;7.024;2022-12-18T00:13:53;46.22;;;20.98;;
58302;SDS011;44109;52.398;7.024;2022-12-18T00:16:24;48.40;;;21.92;;
58302;SDS011;44109;52.398;7.024;2022-12-18T00:18:54;47.05;;;20.08;;
58302;SDS011;44109;52.398;7.024;2022-12-18T00:21:24;43.88;;;19.63;;
58302;SDS011;44109;52.398;7.024;2022-12-18T00:23:53;48.55;;;21.15;;
58302;SDS011;44109;52.398;7.024;2022-12-18T00:26:21;88.65;;;36.25;;
58302;SDS011;44109;52.398;7.024;2022-12-18T00:28:52;58.28;;;27.40;;
58302;SDS011;44109;52.398;7.024;2022-12-18T00:31:22;52.50;;;22.45;;
58302;SDS011;44109;52.398;7.024;2022-12-18T00:33:53;67.00;;;27.02;;
58302;SDS011;44109;52.398;7.024;2022-12-18T00:36:22;74.53;;;31.00;;
58302;SDS011;44109;52.398;7.024;2022-12-18T00:38:52;69.93;;;29.60;;
58302;SDS011;44109;52.398;7.024;2022-12-18T00:41:22;90.00;;;36.03;;
58302;SDS011;44109;52.398;7.024;2022-12-18T00:44:09;89.15;;;36.45;;
58302;SDS011;44109;52.398;7.024;2022-12-18T00:46:41;79.85;;;32.58;;
58302;SDS011;44109;52.398;7.024;2022-12-18T00:49:09;82.60;;;31.73;;
58302;SDS011;44109;52.398;7.024;2022-12-18T00:51:37;66.47;;;28.33;;
58302;SDS011;44109;52.398;7.024;2022-12-18T00:54:05;64.45;;;27.73;;
58302;SDS011;44109;52.398;7.024;2022-12-18T00:56:32;65.68;;;27.33;;
58302;SDS011;44109;52.398;7.024;2022-12-18T00:59:03;68.22;;;29.35;;
58302;SDS011;44109;52.398;7.024;2022-12-18T01:01:31;63.40;;;26.17;;
58302;SDS011;44109;52.398;7.024;2022-12-18T01:04:01;57.10;;;26.98;;
58302;SDS011;44109;52.398;7.024;2022-12-18T01:06:29;43.28;;;20.10;;
58302;SDS011;44109;52.398;7.024;2022-12-18T01:08:57;51.92;;;21.15;;
58302;SDS011;44109;52.398;7.024;2022-12-18T01:11:25;47.85;;;21.67;;
58302;SDS011;44109;52.398;7.024;2022-12-18T01:13:53;45.22;;;20.83;;
58302;SDS011;44109;52.398;7.024;2022-12-18T01:16:21;52.60;;;21.70;;
58302;SDS011;44109;52.398;7.024;2022-12-18T01:18:51;46.13;;;20.30;;
58302;SDS011;44109;52.398;7.024;2022-12-18T01:21:22;39.63;;;19.00;;
58302;SDS011;44109;52.398;7.024;2022-12-18T01:23:51;45.45;;;21.75;;
58302;SDS011;44109;52.398;7.024;2022-12-18T01:26:20;43.85;;;21.00;;
58302;SDS011;44109;52.398;7.024;2022-12-18T01:28:48;53.05;;;21.83;;
58302;SDS011;44109;52.398;7.024;2022-12-18T01:31:17;48.78;;;22.15;;
58302;SDS011;44109;52.398;7.024;2022-12-18T01:33:47;45.58;;;20.70;;
58302;SDS011;44109;52.398;7.024;2022-12-18T01:36:17;45.92;;;21.77;;
58302;SDS011;44109;52.398;7.024;2022-12-18T01:38:49;43.42;;;21.08;;
58302;SDS011;44109;52.398;7.024;2022-12-18T01:41:18;43.53;;;20.02;;
58302;SDS011;44109;52.398;7.024;2022-12-18T01:43:49;45.88;;;22.23;;
58302;SDS011;44109;52.398;7.024;2022-12-18T01:46:20;43.83;;;19.95;;
58302;SDS011;44109;52.398;7.024;2022-12-18T01:48:52;37.67;;;19.42;;
58302;SDS011;44109;52.398;7.024;2022-12-18T01:51:24;42.78;;;19.52;;
58302;SDS011;44109;52.398;7.024;2022-12-18T01:53:57;39.00;;;17.00;;
58302;SDS011;44109;52.398;7.024;2022-12-18T01:56:26;39.67;;;17.00;;
58302;SDS011;44109;52.398;7.024;2022-12-18T01:58:54;37.83;;;17.60;;
58302;SDS011;44109;52.398;7.024;2022-12-18T02:01:29;37.53;;;17.08;;
58302;SDS011;44109;52.398;7.024;2022-12-18T02:04:13;40.33;;;19.35;;
58302;SDS011;44109;52.398;7.024;2022-12-18T02:06:48;43.85;;;18.27;;
58302;SDS011;44109;52.398;7.024;2022-12-18T02:09:31;38.97;;;16.95;;
58302;SDS011;44109;52.398;7.024;2022-12-18T02:12:10;42.45;;;18.83;;
58302;SDS011;44109;52.398;7.024;2022-12-18T02:14:48;36.75;;;17.55;;
58302;SDS011;44109;52.398;7.024;2022-12-18T02:17:27;39.42;;;18.80;;
58302;SDS011;44109;52.398;7.024;2022-12-18T02:20:05;40.35;;;17.48;;
58302;SDS011;44109;52.398;7.024;2022-12-18T02:22:45;37.05;;;16.55;;
58302;SDS011;44109;52.398;7.024;2022-12-18T02:25:40;37.75;;;16.83;;
58302;SDS011;44109;52.398;7.024;2022-12-18T02:28:30;36.15;;;17.33;;
58302;SDS011;44109;52.398;7.024;2022-12-18T02:31:04;44.90;;;20.33;;
58302;SDS011;44109;52.398;7.024;2022-12-18T02:33:37;36.00;;;17.25;;
58302;SDS011;44109;52.398;7.024;2022-12-18T02:36:08;37.53;;;18.23;;
58302;SDS011;44109;52.398;7.024;2022-12-18T02:38:40;35.90;;;17.27;;
58302;SDS011;44109;52.398;7.024;2022-12-18T02:41:12;42.58;;;18.27;;
58302;SDS011;44109;52.398;7.024;2022-12-18T02:43:45;36.55;;;16.33;;
58302;SDS011;44109;52.398;7.024;2022-12-18T02:46:23;34.13;;;17.13;;
58302;SDS011;44109;52.398;7.024;2022-12-18T02:49:00;42.13;;;16.88;;
58302;SDS011;44109;52.398;7.024;2022-12-18T02:51:40;39.33;;;17.13;;
58302;SDS011;44109;52.398;7.024;2022-12-18T02:54:32;37.45;;;16.73;;
58302;SDS011;44109;52.398;7.024;2022-12-18T02:57:22;42.78;;;17.65;;
58302;SDS011;44109;52.398;7.024;2022-12-18T03:00:01;41.47;;;18.92;;
58302;SDS011;44109;52.398;7.024;2022-12-18T03:02:37;43.60;;;17.63;;
58302;SDS011;44109;52.398;7.024;2022-12-18T03:05:15;36.08;;;17.10;;
58302;SDS011;44109;52.398;7.024;2022-12-18T03:07:50;37.58;;;17.85;;
58302;SDS011;44109;52.398;7.024;2022-12-18T03:10:26;36.78;;;17.63;;
58302;SDS011;44109;52.398;7.024;2022-12-18T03:13:02;37.97;;;17.92;;
58302;SDS011;44109;52.398;7.024;2022-12-18T03:15:35;43.63;;;18.38;;
58302;SDS011;44109;52.398;7.024;2022-12-18T03:18:10;34.08;;;16.83;;
58302;SDS011;44109;52.398;7.024;2022-12-18T03:20:44;40.65;;;17.48;;
58302;SDS011;44109;52.398;7.024;2022-12-18T03:23:18;31.60;;;15.73;;
58302;SDS011;44109;52.398;7.024;2022-12-18T03:25:51;33.63;;;17.08;;
58302;SDS011;44109;52.398;7.024;2022-12-18T03:28:29;40.08;;;17.42;;
58302;SDS011;44109;52.398;7.024;2022-12-18T03:31:02;31.75;;;15.63;;
58302;SDS011;44109;52.398;7.024;2022-12-18T03:33:37;27.65;;;14.32;;
58302;SDS011;44109;52.398;7.024;2022-12-18T03:36:11;32.53;;;17.45;;
58302;SDS011;44109;52.398;7.024;2022-12-18T03:38:41;41.88;;;16.38;;
58302;SDS011;44109;52.398;7.024;2022-12-18T03:41:11;36.88;;;16.02;;
58302;SDS011;44109;52.398;7.024;2022-12-18T03:43:53;33.67;;;17.15;;
58302;SDS011;44109;52.398;7.024;2022-12-18T03:46:37;38.60;;;17.92;;
58302;SDS011;44109;52.398;7.024;2022-12-18T03:49:19;32.17;;;14.77;;
58302;SDS011;44109;52.398;7.024;2022-12-18T03:51:59;35.88;;;16.23;;
58302;SDS011;44109;52.398;7.024;2022-12-18T03:54:32;34.40;;;15.88;;
58302;SDS011;44109;52.398;7.024;2022-12-18T03:57:03;36.25;;;15.75;;
58302;SDS011;44109;52.398;7.024;2022-12-18T03:59:40;36.85;;;16.65;;
58302;SDS011;44109;52.398;7.024;2022-12-18T04:02:11;31.90;;;17.45;;
58302;SDS011;44109;52.398;7.024;2022-12-18T04:04:39;36.65;;;16.15;;
58302;SDS011;44109;52.398;7.024;2022-12-18T04:07:09;37.58;;;16.95;;
58302;SDS011;44109;52.398;7.024;2022-12-18T04:09:40;40.22;;;17.92;;
58302;SDS011;44109;52.398;7.024;2022-12-18T04:12:12;33.00;;;16.38;;
58302;SDS011;44109;52.398;7.024;2022-12-18T04:14:41;30.98;;;16.30;;
58302;SDS011;44109;52.398;7.024;2022-12-18T04:17:08;35.45;;;17.25;;
58302;SDS011;44109;52.398;7.024;2022-12-18T04:19:36;36.00;;;16.45;;
58302;SDS011;44109;52.398;7.024;2022-12-18T04:22:04;34.90;;;16.83;;
58302;SDS011;44109;52.398;7.024;2022-12-18T04:24:31;35.55;;;16.40;;
58302;SDS011;44109;52.398;7.024;2022-12-18T04:26:59;31.90;;;16.55;;
58302;SDS011;44109;52.398;7.024;2022-12-18T04:29:26;36.03;;;16.33;;
58302;SDS011;44109;52.398;7.024;2022-12-18T04:31:55;29.95;;;16.42;;
58302;SDS011;44109;52.398;7.024;2022-12-18T04:34:23;32.60;;;16.85;;
58302;SDS011;44109;52.398;7.024;2022-12-18T04:36:51;39.45;;;18.73;;
58302;SDS011;44109;52.398;7.024;2022-12-18T04:39:18;30.23;;;15.48;;
58302;SDS011;44109;52.398;7.024;2022-12-18T04:41:46;34.65;;;16.63;;
58302;SDS011;44109;52.398;7.024;2022-12-18T04:44:13;34.33;;;17.38;;
58302;SDS011;44109;52.398;7.024;2022-12-18T04:46:41;31.42;;;14.95;;
58302;SDS011;44109;52.398;7.024;2022-12-18T04:49:10;29.15;;;15.93;;
58302;SDS011;44109;52.398;7.024;2022-12-18T04:51:38;33.88;;;16.67;;
58302;SDS011;44109;52.398;7.024;2022-12-18T04:54:06;35.58;;;14.77;;
58302;SDS011;44109;52.398;7.024;2022-12-18T04:56:33;31.48;;;14.98;;
58302;SDS011;44109;52.398;7.024;2022-12-18T04:59:01;33.22;;;14.60;;
58302;SDS011;44109;52.398;7.024;2022-12-18T05:01:29;30.73;;;15.18;;
58302;SDS011;44109;52.398;7.024;2022-12-18T05:03:56;28.80;;;15.52;;
58302;SDS011;44109;52.398;7.024;2022-12-18T05:06:25;27.73;;;13.70;;
58302;SDS011;44109;52.398;7.024;2022-12-18T05:08:52;37.70;;;17.85;;
58302;SDS011;44109;52.398;7.024;2022-12-18T05:11:20;31.17;;;13.75;;
58302;SDS011;44109;52.398;7.024;2022-12-18T05:13:48;38.10;;;16.23;;
58302;SDS011;44109;52.398;7.024;2022-12-18T05:16:16;34.53;;;16.00;;
58302;SDS011;44109;52.398;7.024;2022-12-18T05:18:43;29.48;;;16.42;;
58302;SDS011;44109;52.398;7.024;2022-12-18T05:21:11;31.83;;;13.65;;
58302;SDS011;44109;52.398;7.024;2022-12-18T05:23:40;33.72;;;15.27;;
58302;SDS011;44109;52.398;7.024;2022-12-18T05:26:08;27.77;;;13.55;;
58302;SDS011;44109;52.398;7.024;2022-12-18T05:28:41;30.63;;;14.20;;
58302;SDS011;44109;52.398;7.024;2022-12-18T05:31:08;29.20;;;15.30;;
58302;SDS011;44109;52.398;7.024;2022-12-18T05:33:36;31.90;;;16.15;;
58302;SDS011;44109;52.398;7.024;2022-12-18T05:36:06;33.63;;;15.65;;
58302;SDS011;44109;52.398;7.024;2022-12-18T05:38:36;27.85;;;14.43;;
58302;SDS011;44109;52.398;7.024;2022-12-18T05:41:07;27.20;;;13.77;;
58302;SDS011;44109;52.398;7.024;2022-12-18T05:43:36;30.38;;;14.15;;
58302;SDS011;44109;52.398;7.024;2022-12-18T05:46:06;29.23;;;13.38;;
58302;SDS011;44109;52.398;7.024;2022-12-18T05:48:38;28.27;;;14.07;;
58302;SDS011;44109;52.398;7.024;2022-12-18T05:51:06;26.27;;;13.38;;
58302;SDS011;44109;52.398;7.024;2022-12-18T05:53:36;30.45;;;14.15;;
58302;SDS011;44109;52.398;7.024;2022-12-18T05:56:07;25.33;;;12.48;;
58302;SDS011;44109;52.398;7.024;2022-12-18T05:58:37;24.35;;;12.70;;
58302;SDS011;44109;52.398;7.024;2022-12-18T06:01:06;31.40;;;12.90;;
58302;SDS011;44109;52.398;7.024;2022-12-18T06:03:36;32.92;;;14.27;;
58302;SDS011;44109;52.398;7.024;2022-12-18T06:06:03;28.05;;;13.07;;
58302;SDS011;44109;52.398;7.024;2022-12-18T06:08:40;23.83;;;12.18;;
58302;SDS011;44109;52.398;7.024;2022-12-18T06:11:09;24.73;;;13.23;;
58302;SDS011;44109;52.398;7.024;2022-12-18T06:13:38;26.65;;;13.60;;
58302;SDS011;44109;52.398;7.024;2022-12-18T06:16:06;24.10;;;13.20;;
58302;SDS011;44109;52.398;7.024;2022-12-18T06:18:34;27.55;;;13.60;;
58302;SDS011;44109;52.398;7.024;2022-12-18T06:21:03;28.75;;;14.75;;
58302;SDS011;44109;52.398;7.024;2022-12-18T06:23:31;24.52;;;13.65;;
58302;SDS011;44109;52.398;7.024;2022-12-18T06:26:02;23.17;;;12.52;;
58302;SDS011;44109;52.398;7.024;2022-12-18T06:28:33;28.20;;;11.38;;
58302;SDS011;44109;52.398;7.024;2022-12-18T06:31:02;26.42;;;12.20;;
58302;SDS011;44109;52.398;7.024;2022-12-18T06:33:31;28.98;;;13.02;;
58302;SDS011;44109;52.398;7.024;2022-12-18T06:35:59;22.65;;;11.35;;
58302;SDS011;44109;52.398;7.024;2022-12-18T06:38:28;26.40;;;12.57;;
58302;SDS011;44109;52.398;7.024;2022-12-18T06:40:57;23.25;;;12.52;;
58302;SDS011;44109;52.398;7.024;2022-12-18T06:43:25;26.52;;;12.55;;
58302;SDS011;44109;52.398;7.024;2022-12-18T06:45:58;33.45;;;13.75;;
58302;SDS011;44109;52.398;7.024;2022-12-18T06:48:27;29.75;;;13.70;;
58302;SDS011;44109;52.398;7.024;2022-12-18T06:50:54;28.08;;;13.10;;
58302;SDS011;44109;52.398;7.024;2022-12-18T06:53:22;29.73;;;13.82;;
58302;SDS011;44109;52.398;7.024;2022-12-18T06:55:50;34.38;;;15.52;;
58302;SDS011;44109;52.398;7.024;2022-12-18T06:58:18;25.80;;;12.63;;
58302;SDS011;44109;52.398;7.024;2022-12-18T07:00:46;34.10;;;16.17;;
58302;SDS011;44109;52.398;7.024;2022-12-18T07:03:14;38.13;;;17.83;;
58302;SDS011;44109;52.398;7.024;2022-12-18T07:05:42;33.03;;;15.93;;
58302;SDS011;44109;52.398;7.024;2022-12-18T07:08:09;35.08;;;16.92;;
58302;SDS011;44109;52.398;7.024;2022-12-18T07:10:40;34.58;;;16.52;;
58302;SDS011;44109;52.398;7.024;2022-12-18T07:13:09;31.80;;;14.65;;
58302;SDS011;44109;52.398;7.024;2022-12-18T07:15:37;31.35;;;16.17;;
58302;SDS011;44109;52.398;7.024;2022-12-18T07:18:04;41.90;;;20.60;;
58302;SDS011;44109;52.398;7.024;2022-12-18T07:20:33;51.42;;;24.10;;
58302;SDS011;44109;52.398;7.024;2022-12-18T07:23:01;43.67;;;20.80;;
58302;SDS011;44109;52.398;7.024;2022-12-18T07:25:29;40.58;;;21.20;;
58302;SDS011;44109;52.398;7.024;2022-12-18T07:27:57;40.80;;;20.00;;
58302;SDS011;44109;52.398;7.024;2022-12-18T07:30:24;34.78;;;17.38;;
58302;SDS011;44109;52.398;7.024;2022-12-18T07:32:52;39.22;;;19.60;;
58302;SDS011;44109;52.398;7.024;2022-12-18T07:35:20;33.78;;;17.10;;
58302;SDS011;44109;52.398;7.024;2022-12-18T07:37:49;32.35;;;16.27;;
58302;SDS011;44109;52.398;7.024;2022-12-18T07:40:16;40.60;;;19.73;;
58302;SDS011;44109;52.398;7.024;2022-12-18T07:42:44;38.63;;;20.00;;
58302;SDS011;44109;52.398;7.024;2022-12-18T07:45:11;35.55;;;19.48;;
58302;SDS011;44109;52.398;7.024;2022-12-18T07:47:39;35.33;;;19.38;;
58302;SDS011;44109;52.398;7.024;2022-12-18T07:50:08;37.53;;;17.10;;
58302;SDS011;44109;52.398;7.024;2022-12-18T07:52:36;30.67;;;17.77;;
58302;SDS011;44109;52.398;7.024;2022-12-18T07:55:05;31.35;;;18.08;;
58302;SDS011;44109;52.398;7.024;2022-12-18T07:57:33;33.25;;;19.27;;
58302;SDS011;44109;52.398;7.024;2022-12-18T08:00:01;29.65;;;16.33;;
58302;SDS011;44109;52.398;7.024;2022-12-18T08:02:30;35.45;;;17.55;;
58302;SDS011;44109;52.398;7.024;2022-12-18T08:04:58;39.90;;;20.73;;
58302;SDS011;44109;52.398;7.024;2022-12-18T08:07:25;40.47;;;20.95;;
58302;SDS011;44109;52.398;7.024;2022-12-18T08:09:53;47.72;;;21.90;;
58302;SDS011;44109;52.398;7.024;2022-12-18T08:12:22;54.42;;;24.55;;
58302;SDS011;44109;52.398;7.024;2022-12-18T08:14:49;49.92;;;22.80;;
58302;SDS011;44109;52.398;7.024;2022-12-18T08:17:17;41.95;;;20.58;;
58302;SDS011;44109;52.398;7.024;2022-12-18T08:19:46;44.72;;;21.65;;
58302;SDS011;44109;52.398;7.024;2022-12-18T08:22:13;33.65;;;17.92;;
58302;SDS011;44109;52.398;7.024;2022-12-18T08:24:41;41.72;;;18.70;;
58302;SDS011;44109;52.398;7.024;2022-12-18T08:27:09;34.70;;;16.35;;
58302;SDS011;44109;52.398;7.024;2022-12-18T08:29:38;31.42;;;16.70;;
58302;SDS011;44109;52.398;7.024;2022-12-18T08:32:05;32.15;;;16.83;;
58302;SDS011;44109;52.398;7.024;2022-12-18T08:34:33;29.52;;;15.63;;
58302;SDS011;44109;52.398;7.024;2022-12-18T08:37:01;38.50;;;21.30;;
58302;SDS011;44109;52.398;7.024;2022-12-18T08:39:29;31.58;;;17.13;;
58302;SDS011;44109;52.398;7.024;2022-12-18T08:41:56;31.45;;;18.02;;
58302;SDS011;44109;52.398;7.024;2022-12-18T08:44:43;28.80;;;17.95;;
58302;SDS011;44109;52.398;7.024;2022-12-18T08:47:10;32.05;;;17.80;;
58302;SDS011;44109;52.398;7.024;2022-12-18T08:49:38;26.42;;;14.88;;
58302;SDS011;44109;52.398;7.024;2022-12-18T08:52:06;27.90;;;15.40;;
58302;SDS011;44109;52.398;7.024;2022-12-18T08:54:34;25.27;;;14.52;;
58302;SDS011;44109;52.398;7.024;2022-12-18T08:57:02;22.85;;;13.77;;
58302;SDS011;44109;52.398;7.024;2022-12-18T08:59:30;22.95;;;13.25;;
58302;SDS011;44109;52.398;7.024;2022-12-18T09:01:59;20.27;;;11.85;;
58302;SDS011;44109;52.398;7.024;2022-12-18T09:04:26;22.95;;;13.13;;
58302;SDS011;44109;52.398;7.024;2022-12-18T09:06:55;23.65;;;13.30;;
58302;SDS011;44109;52.398;7.024;2022-12-18T09:09:22;23.60;;;13.88;;
58302;SDS011;44109;52.398;7.024;2022-12-18T09:11:50;23.60;;;12.95;;
58302;SDS011;44109;52.398;7.024;2022-12-18T09:14:18;21.77;;;12.88;;
58302;SDS011;44109;52.398;7.024;2022-12-18T09:16:45;24.45;;;13.25;;
58302;SDS011;44109;52.398;7.024;2022-12-18T09:19:14;26.25;;;13.23;;
58302;SDS011;44109;52.398;7.024;2022-12-18T09:21:42;27.05;;;14.55;;
58302;SDS011;44109;52.398;7.024;2022-12-18T09:24:11;24.17;;;12.68;;
58302;SDS011;44109;52.398;7.024;2022-12-18T09:26:40;24.73;;;13.25;;
58302;SDS011;44109;52.398;7.024;2022-12-18T09:29:08;24.45;;;13.07;;
58302;SDS011;44109;52.398;7.024;2022-12-18T09:31:36;19.40;;;11.57;;
58302;SDS011;44109;52.398;7.024;2022-12-18T09:34:05;24.27;;;12.70;;
58302;SDS011;44109;52.398;7.024;2022-12-18T09:36:34;20.58;;;11.45;;
58302;SDS011;44109;52.398;7.024;2022-12-18T09:39:02;16.92;;;10.07;;
58302;SDS011;44109;52.398;7.024;2022-12-18T09:41:39;19.80;;;12.13;;
58302;SDS011;44109;52.398;7.024;2022-12-18T09:47:04;17.95;;;10.25;;
58302;SDS011;44109;52.398;7.024;2022-12-18T09:49:40;16.60;;;8.77;;
58302;SDS011;44109;52.398;7.024;2022-12-18T09:52:13;16.33;;;8.85;;
58302;SDS011;44109;52.398;7.024;2022-12-18T09:54:50;15.98;;;8.57;;
58302;SDS011;44109;52.398;7.024;2022-12-18T09:57:23;13.73;;;8.80;;
58302;SDS011;44109;52.398;7.024;2022-12-18T09:59:53;14.02;;;7.93;;
58302;SDS011;44109;52.398;7.024;2022-12-18T10:02:29;14.95;;;8.80;;
58302;SDS011;44109;52.398;7.024;2022-12-18T10:05:05;16.67;;;9.85;;
58302;SDS011;44109;52.398;7.024;2022-12-18T10:07:42;15.60;;;9.32;;
58302;SDS011;44109;52.398;7.024;2022-12-18T10:10:26;18.08;;;8.60;;
58302;SDS011;44109;52.398;7.024;2022-12-18T10:13:07;15.45;;;8.73;;
58302;SDS011;44109;52.398;7.024;2022-12-18T10:15:52;17.05;;;9.80;;
58302;SDS011;44109;52.398;7.024;2022-12-18T10:21:43;13.90;;;8.18;;
58302;SDS011;44109;52.398;7.024;2022-12-18T10:24:32;14.20;;;7.70;;
58302;SDS011;44109;52.398;7.024;2022-12-18T10:27:11;11.35;;;7.90;;
58302;SDS011;44109;52.398;7.024;2022-12-18T10:29:42;12.18;;;7.25;;
58302;SDS011;44109;52.398;7.024;2022-12-18T10:32:15;11.23;;;8.32;;
58302;SDS011;44109;52.398;7.024;2022-12-18T10:34:47;12.45;;;7.65;;
58302;SDS011;44109;52.398;7.024;2022-12-18T10:37:17;11.07;;;7.22;;
58302;SDS011;44109;52.398;7.024;2022-12-18T10:40:07;15.98;;;8.57;;
58302;SDS011;44109;52.398;7.024;2022-12-18T10:42:39;13.48;;;8.43;;
58302;SDS011;44109;52.398;7.024;2022-12-18T10:45:09;16.08;;;9.65;;
58302;SDS011;44109;52.398;7.024;2022-12-18T10:47:41;16.67;;;9.18;;
58302;SDS011;44109;52.398;7.024;2022-12-18T10:50:18;13.55;;;9.20;;
58302;SDS011;44109;52.398;7.024;2022-12-18T10:52:54;19.73;;;9.98;;
58302;SDS011;44109;52.398;7.024;2022-12-18T10:55:27;16.15;;;9.50;;
58302;SDS011;44109;52.398;7.024;2022-12-18T10:58:13;21.55;;;11.27;;
58302;SDS011;44109;52.398;7.024;2022-12-18T11:01:07;20.73;;;11.25;;
58302;SDS011;44109;52.398;7.024;2022-12-18T11:03:39;14.10;;;8.65;;
58302;SDS011;44109;52.398;7.024;2022-12-18T11:06:10;12.88;;;7.20;;
58302;SDS011;44109;52.398;7.024;2022-12-18T11:08:40;14.95;;;8.00;;
58302;SDS011;44109;52.398;7.024;2022-12-18T11:11:19;14.45;;;8.73;;
58302;SDS011;44109;52.398;7.024;2022-12-18T11:13:52;12.93;;;7.95;;
58302;SDS011;44109;52.398;7.024;2022-12-18T11:16:29;15.68;;;8.35;;
58302;SDS011;44109;52.398;7.024;2022-12-18T11:19:12;16.50;;;9.88;;
58302;SDS011;44109;52.398;7.024;2022-12-18T11:21:50;13.05;;;8.65;;
58302;SDS011;44109;52.398;7.024;2022-12-18T11:24:19;12.18;;;8.10;;
58302;SDS011;44109;52.398;7.024;2022-12-18T11:26:55;13.35;;;7.85;;
58302;SDS011;44109;52.398;7.024;2022-12-18T11:29:28;13.30;;;8.18;;
58302;SDS011;44109;52.398;7.024;2022-12-18T11:32:19;11.75;;;7.50;;
58302;SDS011;44109;52.398;7.024;2022-12-18T11:34:59;13.52;;;8.07;;
58302;SDS011;44109;52.398;7.024;2022-12-18T11:37:37;12.13;;;6.30;;
58302;SDS011;44109;52.398;7.024;2022-12-18T11:40:11;11.10;;;7.10;;
58302;SDS011;44109;52.398;7.024;2022-12-18T11:42:48;11.38;;;6.20;;
58302;SDS011;44109;52.398;7.024;2022-12-18T11:45:25;12.77;;;8.00;;
58302;SDS011;44109;52.398;7.024;2022-12-18T11:47:58;13.88;;;8.15;;
58302;SDS011;44109;52.398;7.024;2022-12-18T11:50:33;12.80;;;7.40;;
58302;SDS011;44109;52.398;7.024;2022-12-18T11:53:11;12.20;;;6.85;;
58302;SDS011;44109;52.398;7.024;2022-12-18T11:55:41;16.27;;;8.63;;
58302;SDS011;44109;52.398;7.024;2022-12-18T12:01:21;10.85;;;7.13;;
58302;SDS011;44109;52.398;7.024;2022-12-18T12:04:14;12.73;;;7.68;;
58302;SDS011;44109;52.398;7.024;2022-12-18T12:07:07;11.73;;;6.97;;
58302;SDS011;44109;52.398;7.024;2022-12-18T12:09:54;12.50;;;7.45;;
58302;SDS011;44109;52.398;7.024;2022-12-18T12:12:38;11.30;;;7.15;;
58302;SDS011;44109;52.398;7.024;2022-12-18T12:15:26;12.68;;;7.13;;
58302;SDS011;44109;52.398;7.024;2022-12-18T12:18:08;11.75;;;7.80;;
58302;SDS011;44109;52.398;7.024;2022-12-18T12:20:56;13.85;;;8.68;;
58302;SDS011;44109;52.398;7.024;2022-12-18T12:23:36;14.00;;;8.68;;
58302;SDS011;44109;52.398;7.024;2022-12-18T12:26:18;12.25;;;7.32;;
58302;SDS011;44109;52.398;7.024;2022-12-18T12:29:05;12.13;;;7.15;;
58302;SDS011;44109;52.398;7.024;2022-12-18T12:31:56;10.55;;;6.65;;
58302;SDS011;44109;52.398;7.024;2022-12-18T12:34:40;11.43;;;6.32;;
58302;SDS011;44109;52.398;7.024;2022-12-18T12:37:24;12.77;;;7.45;;
58302;SDS011;44109;52.398;7.024;2022-12-18T12:40:07;13.52;;;8.13;;
58302;SDS011;44109;52.398;7.024;2022-12-18T12:42:44;12.68;;;7.97;;
58302;SDS011;44109;52.398;7.024;2022-12-18T12:45:43;14.80;;;7.22;;
58302;SDS011;44109;52.398;7.024;2022-12-18T12:48:20;11.38;;;6.53;;
58302;SDS011;44109;52.398;7.024;2022-12-18T12:51:08;13.57;;;7.68;;
58302;SDS011;44109;52.398;7.024;2022-12-18T12:53:43;10.30;;;6.78;;
58302;SDS011;44109;52.398;7.024;2022-12-18T12:56:13;10.88;;;6.22;;
58302;SDS011;44109;52.398;7.024;2022-12-18T12:58:46;9.48;;;5.93;;
58302;SDS011;44109;52.398;7.024;2022-12-18T13:01:27;9.10;;;5.70;;
58302;SDS011;44109;52.398;7.024;2022-12-18T13:04:12;11.88;;;5.78;;
58302;SDS011;44109;52.398;7.024;2022-12-18T13:06:53;10.35;;;6.50;;
58302;SDS011;44109;52.398;7.024;2022-12-18T13:09:31;11.30;;;5.38;;
58302;SDS011;44109;52.398;7.024;2022-12-18T13:12:02;8.07;;;5.53;;
58302;SDS011;44109;52.398;7.024;2022-12-18T13:14:55;10.23;;;5.63;;
58302;SDS011;44109;52.398;7.024;2022-12-18T13:17:47;9.23;;;4.43;;
58302;SDS011;44109;52.398;7.024;2022-12-18T13:20:16;8.90;;;5.18;;
58302;SDS011;44109;52.398;7.024;2022-12-18T13:22:44;10.45;;;6.55;;
58302;SDS011;44109;52.398;7.024;2022-12-18T13:25:27;9.52;;;6.15;;
58302;SDS011;44109;52.398;7.024;2022-12-18T13:28:03;10.10;;;6.13;;
58302;SDS011;44109;52.398;7.024;2022-12-18T13:36:23;10.57;;;6.03;;
58302;SDS011;44109;52.398;7.024;2022-12-18T13:39:15;12.02;;;7.05;;
58302;SDS011;44109;52.398;7.024;2022-12-18T13:41:52;10.95;;;6.45;;
58302;SDS011;44109;52.398;7.024;2022-12-18T13:45:00;10.15;;;5.75;;
58302;SDS011;44109;52.398;7.024;2022-12-18T13:47:31;10.48;;;6.38;;
58302;SDS011;44109;52.398;7.024;2022-12-18T13:50:04;9.25;;;6.50;;
58302;SDS011;44109;52.398;7.024;2022-12-18T13:52:48;11.32;;;5.68;;
58302;SDS011;44109;52.398;7.024;2022-12-18T13:55:17;10.68;;;6.50;;
58302;SDS011;44109;52.398;7.024;2022-12-18T13:57:49;9.35;;;5.60;;
58302;SDS011;44109;52.398;7.024;2022-12-18T14:00:23;10.85;;;5.70;;
58302;SDS011;44109;52.398;7.024;2022-12-18T14:02:54;9.43;;;5.30;;
58302;SDS011;44109;52.398;7.024;2022-12-18T14:05:23;8.73;;;5.53;;
58302;SDS011;44109;52.398;7.024;2022-12-18T14:07:55;9.40;;;6.32;;
58302;SDS011;44109;52.398;7.024;2022-12-18T14:10:31;8.27;;;5.35;;
58302;SDS011;44109;52.398;7.024;2022-12-18T14:13:02;12.38;;;6.32;;
58302;SDS011;44109;52.398;7.024;2022-12-18T14:15:38;12.57;;;6.55;;
58302;SDS011;44109;52.398;7.024;2022-12-18T14:18:15;11.73;;;6.50;;
58302;SDS011;44109;52.398;7.024;2022-12-18T14:20:49;12.20;;;5.68;;
58302;SDS011;44109;52.398;7.024;2022-12-18T14:23:27;10.02;;;5.97;;
58302;SDS011;44109;52.398;7.024;2022-12-18T14:25:59;9.90;;;5.68;;
58302;SDS011;44109;52.398;7.024;2022-12-18T14:28:29;10.23;;;6.32;;
58302;SDS011;44109;52.398;7.024;2022-12-18T14:30:57;11.80;;;7.38;;
58302;SDS011;44109;52.398;7.024;2022-12-18T14:33:26;11.85;;;6.78;;
58302;SDS011;44109;52.398;7.024;2022-12-18T14:35:56;9.85;;;6.07;;
58302;SDS011;44109;52.398;7.024;2022-12-18T14:38:28;9.70;;;5.63;;
58302;SDS011;44109;52.398;7.024;2022-12-18T14:40:59;10.05;;;5.93;;
58302;SDS011;44109;52.398;7.024;2022-12-18T14:43:31;10.18;;;5.70;;
58302;SDS011;44109;52.398;7.024;2022-12-18T14:46:02;14.43;;;5.80;;
58302;SDS011;44109;52.398;7.024;2022-12-18T14:48:36;12.65;;;6.85;;
58302;SDS011;44109;52.398;7.024;2022-12-18T14:51:07;14.52;;;7.63;;
58302;SDS011;44109;52.398;7.024;2022-12-18T14:53:46;13.52;;;7.25;;
58302;SDS011;44109;52.398;7.024;2022-12-18T14:56:16;15.63;;;8.88;;
58302;SDS011;44109;52.398;7.024;2022-12-18T14:58:48;16.13;;;9.18;;
58302;SDS011;44109;52.398;7.024;2022-12-18T15:01:19;17.77;;;10.45;;
58302;SDS011;44109;52.398;7.024;2022-12-18T15:03:51;16.25;;;8.85;;
58302;SDS011;44109;52.398;7.024;2022-12-18T15:06:28;17.70;;;9.05;;
58302;SDS011;44109;52.398;7.024;2022-12-18T15:09:02;15.05;;;8.10;;
58302;SDS011;44109;52.398;7.024;2022-12-18T15:11:47;9.77;;;6.43;;
58302;SDS011;44109;52.398;7.024;2022-12-18T15:17:14;10.95;;;7.15;;